sensor_id;sensor_type;location;lat;lon;timestamp;P1;durP1;ratioP1;P2;durP2;ratioP2
24086;SDS011;22893;50.572;7.234;2023-02-24T00:01:36;3.45;;;1.65;;
24086;SDS011;22893;50.572;7.234;2023-02-24T00:04:06;7.83;;;2.50;;
24086;SDS011;22893;50.572;7.234;2023-02-24T00:06:37;3.70;;;1.40;;
24086;SDS011;22893;50.572;7.234;2023-02-24T00:09:13;3.22;;;1.70;;
24086;SDS011;22893;50.572;7.234;2023-02-24T00:11:59;3.60;;;1.98;;
24086;SDS011;22893;50.572;7.234;2023-02-24T00:14:30;2.77;;;1.57;;
24086;SDS011;22893;50.572;7.234;2023-02-24T00:16:59;3.25;;;1.60;;
24086;SDS011;22893;50.572;7.234;2023-02-24T00:19:28;3.62;;;1.72;;
24086;SDS011;22893;50.572;7.234;2023-02-24T00:22:00;4.20;;;1.95;;
24086;SDS011;22893;50.572;7.234;2023-02-24T00:24:28;3.02;;;1.52;;
24086;SDS011;22893;50.572;7.234;2023-02-24T00:26:57;3.35;;;1.85;;
24086;SDS011;22893;50.572;7.234;2023-02-24T00:29:26;2.58;;;1.50;;
24086;SDS011;22893;50.572;7.234;2023-02-24T00:31:55;3.75;;;2.12;;
24086;SDS011;22893;50.572;7.234;2023-02-24T00:34:29;3.35;;;1.98;;
24086;SDS011;22893;50.572;7.234;2023-02-24T00:36:58;4.62;;;1.77;;
24086;SDS011;22893;50.572;7.234;2023-02-24T00:39:29;3.55;;;1.70;;
24086;SDS011;22893;50.572;7.234;2023-02-24T00:41:57;3.27;;;1.55;;
24086;SDS011;22893;50.572;7.234;2023-02-24T00:44:32;2.60;;;1.50;;
24086;SDS011;22893;50.572;7.234;2023-02-24T00:47:03;3.80;;;1.50;;
24086;SDS011;22893;50.572;7.234;2023-02-24T00:49:32;3.25;;;1.72;;
24086;SDS011;22893;50.572;7.234;2023-02-24T00:52:00;3.15;;;1.92;;
24086;SDS011;22893;50.572;7.234;2023-02-24T00:54:29;4.47;;;1.98;;
24086;SDS011;22893;50.572;7.234;2023-02-24T00:56:57;2.58;;;1.45;;
24086;SDS011;22893;50.572;7.234;2023-02-24T00:59:24;3.30;;;1.67;;
24086;SDS011;22893;50.572;7.234;2023-02-24T01:01:52;2.37;;;1.40;;
24086;SDS011;22893;50.572;7.234;2023-02-24T01:04:19;4.65;;;1.90;;
24086;SDS011;22893;50.572;7.234;2023-02-24T01:06:48;3.52;;;1.55;;
24086;SDS011;22893;50.572;7.234;2023-02-24T01:09:19;3.92;;;1.45;;
24086;SDS011;22893;50.572;7.234;2023-02-24T01:11:48;3.83;;;1.87;;
24086;SDS011;22893;50.572;7.234;2023-02-24T01:14:34;2.47;;;1.30;;
24086;SDS011;22893;50.572;7.234;2023-02-24T01:17:02;4.70;;;1.52;;
24086;SDS011;22893;50.572;7.234;2023-02-24T01:19:30;2.83;;;1.55;;
24086;SDS011;22893;50.572;7.234;2023-02-24T01:22:00;2.37;;;1.50;;
24086;SDS011;22893;50.572;7.234;2023-02-24T01:24:30;2.90;;;1.60;;
24086;SDS011;22893;50.572;7.234;2023-02-24T01:27:03;1.77;;;1.10;;
24086;SDS011;22893;50.572;7.234;2023-02-24T01:29:31;2.70;;;1.72;;
24086;SDS011;22893;50.572;7.234;2023-02-24T01:32:01;2.52;;;1.45;;
24086;SDS011;22893;50.572;7.234;2023-02-24T01:34:28;3.77;;;1.60;;
24086;SDS011;22893;50.572;7.234;2023-02-24T01:36:56;2.47;;;1.57;;
24086;SDS011;22893;50.572;7.234;2023-02-24T01:39:24;2.37;;;1.27;;
24086;SDS011;22893;50.572;7.234;2023-02-24T01:41:51;3.45;;;2.17;;
24086;SDS011;22893;50.572;7.234;2023-02-24T01:46:53;2.77;;;1.30;;
24086;SDS011;22893;50.572;7.234;2023-02-24T01:49:22;2.27;;;1.17;;
24086;SDS011;22893;50.572;7.234;2023-02-24T01:52:09;2.17;;;1.27;;
24086;SDS011;22893;50.572;7.234;2023-02-24T01:54:33;5.15;;;2.42;;
24086;SDS011;22893;50.572;7.234;2023-02-24T01:57:13;3.30;;;1.40;;
24086;SDS011;22893;50.572;7.234;2023-02-24T01:59:39;2.72;;;1.42;;
24086;SDS011;22893;50.572;7.234;2023-02-24T02:02:08;2.42;;;1.10;;
24086;SDS011;22893;50.572;7.234;2023-02-24T02:04:46;2.83;;;1.30;;
24086;SDS011;22893;50.572;7.234;2023-02-24T02:07:19;1.75;;;1.02;;
24086;SDS011;22893;50.572;7.234;2023-02-24T02:09:48;2.67;;;1.25;;
24086;SDS011;22893;50.572;7.234;2023-02-24T02:12:18;2.60;;;1.37;;
24086;SDS011;22893;50.572;7.234;2023-02-24T02:14:47;3.40;;;1.25;;
24086;SDS011;22893;50.572;7.234;2023-02-24T02:31:55;3.00;;;1.45;;
24086;SDS011;22893;50.572;7.234;2023-02-24T02:37:05;2.55;;;1.32;;
24086;SDS011;22893;50.572;7.234;2023-02-24T02:47:34;2.87;;;1.65;;
24086;SDS011;22893;50.572;7.234;2023-02-24T02:50:22;3.02;;;1.32;;
24086;SDS011;22893;50.572;7.234;2023-02-24T02:53:09;2.45;;;1.37;;
24086;SDS011;22893;50.572;7.234;2023-02-24T02:56:09;1.67;;;1.22;;
24086;SDS011;22893;50.572;7.234;2023-02-24T02:58:30;2.72;;;1.52;;
24086;SDS011;22893;50.572;7.234;2023-02-24T03:00:59;2.50;;;1.22;;
24086;SDS011;22893;50.572;7.234;2023-02-24T03:03:30;2.00;;;1.22;;
24086;SDS011;22893;50.572;7.234;2023-02-24T03:06:05;2.72;;;1.32;;
24086;SDS011;22893;50.572;7.234;2023-02-24T03:08:31;2.15;;;1.10;;
24086;SDS011;22893;50.572;7.234;2023-02-24T03:11:02;1.90;;;1.20;;
24086;SDS011;22893;50.572;7.234;2023-02-24T03:13:51;2.17;;;1.10;;
24086;SDS011;22893;50.572;7.234;2023-02-24T03:16:22;1.37;;;1.00;;
24086;SDS011;22893;50.572;7.234;2023-02-24T03:18:53;2.05;;;1.27;;
24086;SDS011;22893;50.572;7.234;2023-02-24T03:21:27;2.58;;;1.10;;
24086;SDS011;22893;50.572;7.234;2023-02-24T03:23:59;1.37;;;0.82;;
24086;SDS011;22893;50.572;7.234;2023-02-24T03:26:46;2.08;;;1.07;;
24086;SDS011;22893;50.572;7.234;2023-02-24T03:29:18;2.40;;;1.00;;
24086;SDS011;22893;50.572;7.234;2023-02-24T03:31:51;1.62;;;0.90;;
24086;SDS011;22893;50.572;7.234;2023-02-24T03:37:24;2.08;;;0.98;;
24086;SDS011;22893;50.572;7.234;2023-02-24T03:39:58;2.40;;;1.20;;
24086;SDS011;22893;50.572;7.234;2023-02-24T03:42:37;2.90;;;1.10;;
24086;SDS011;22893;50.572;7.234;2023-02-24T03:45:08;4.40;;;1.50;;
24086;SDS011;22893;50.572;7.234;2023-02-24T03:47:36;2.75;;;1.30;;
24086;SDS011;22893;50.572;7.234;2023-02-24T03:50:12;2.42;;;1.50;;
24086;SDS011;22893;50.572;7.234;2023-02-24T03:55:54;2.35;;;1.42;;
24086;SDS011;22893;50.572;7.234;2023-02-24T03:58:48;3.33;;;1.10;;
24086;SDS011;22893;50.572;7.234;2023-02-24T04:01:13;2.17;;;1.37;;
24086;SDS011;22893;50.572;7.234;2023-02-24T04:09:20;2.67;;;1.10;;
24086;SDS011;22893;50.572;7.234;2023-02-24T04:12:02;2.35;;;1.10;;
24086;SDS011;22893;50.572;7.234;2023-02-24T04:14:49;3.02;;;1.30;;
24086;SDS011;22893;50.572;7.234;2023-02-24T04:20:06;2.65;;;1.20;;
24086;SDS011;22893;50.572;7.234;2023-02-24T04:22:40;3.15;;;1.42;;
24086;SDS011;22893;50.572;7.234;2023-02-24T04:25:12;2.85;;;1.45;;
24086;SDS011;22893;50.572;7.234;2023-02-24T04:27:46;3.10;;;1.60;;
24086;SDS011;22893;50.572;7.234;2023-02-24T04:30:14;5.22;;;1.30;;
24086;SDS011;22893;50.572;7.234;2023-02-24T04:32:41;3.10;;;1.27;;
24086;SDS011;22893;50.572;7.234;2023-02-24T04:35:11;3.58;;;1.05;;
24086;SDS011;22893;50.572;7.234;2023-02-24T04:37:40;4.40;;;1.50;;
24086;SDS011;22893;50.572;7.234;2023-02-24T04:40:14;6.55;;;1.80;;
24086;SDS011;22893;50.572;7.234;2023-02-24T04:42:43;3.22;;;1.60;;
24086;SDS011;22893;50.572;7.234;2023-02-24T04:47:51;2.00;;;1.15;;
24086;SDS011;22893;50.572;7.234;2023-02-24T04:50:24;2.35;;;1.30;;
24086;SDS011;22893;50.572;7.234;2023-02-24T04:52:54;5.05;;;1.40;;
24086;SDS011;22893;50.572;7.234;2023-02-24T04:55:25;2.77;;;1.30;;
24086;SDS011;22893;50.572;7.234;2023-02-24T04:57:55;2.77;;;1.32;;
24086;SDS011;22893;50.572;7.234;2023-02-24T05:00:23;2.70;;;1.30;;
24086;SDS011;22893;50.572;7.234;2023-02-24T05:02:55;3.25;;;1.60;;
24086;SDS011;22893;50.572;7.234;2023-02-24T05:05:23;3.05;;;1.60;;
24086;SDS011;22893;50.572;7.234;2023-02-24T05:07:56;3.02;;;1.47;;
24086;SDS011;22893;50.572;7.234;2023-02-24T05:10:28;2.15;;;1.30;;
24086;SDS011;22893;50.572;7.234;2023-02-24T05:12:58;4.70;;;1.47;;
24086;SDS011;22893;50.572;7.234;2023-02-24T05:15:27;2.62;;;1.22;;
24086;SDS011;22893;50.572;7.234;2023-02-24T05:17:58;1.85;;;0.90;;
24086;SDS011;22893;50.572;7.234;2023-02-24T05:20:26;4.60;;;1.52;;
24086;SDS011;22893;50.572;7.234;2023-02-24T05:23:12;5.47;;;1.80;;
24086;SDS011;22893;50.572;7.234;2023-02-24T05:25:41;4.22;;;1.47;;
24086;SDS011;22893;50.572;7.234;2023-02-24T05:28:09;2.83;;;1.22;;
24086;SDS011;22893;50.572;7.234;2023-02-24T05:30:37;2.85;;;1.52;;
24086;SDS011;22893;50.572;7.234;2023-02-24T05:33:04;2.15;;;1.22;;
24086;SDS011;22893;50.572;7.234;2023-02-24T05:35:34;3.40;;;1.30;;
24086;SDS011;22893;50.572;7.234;2023-02-24T05:38:02;2.42;;;1.37;;
24086;SDS011;22893;50.572;7.234;2023-02-24T05:40:31;4.05;;;2.17;;
24086;SDS011;22893;50.572;7.234;2023-02-24T05:42:59;3.15;;;1.47;;
24086;SDS011;22893;50.572;7.234;2023-02-24T05:45:29;2.60;;;1.37;;
24086;SDS011;22893;50.572;7.234;2023-02-24T05:47:56;11.12;;;2.15;;
24086;SDS011;22893;50.572;7.234;2023-02-24T05:50:24;3.65;;;1.92;;
24086;SDS011;22893;50.572;7.234;2023-02-24T05:52:51;3.77;;;1.70;;
24086;SDS011;22893;50.572;7.234;2023-02-24T05:55:20;6.30;;;1.85;;
24086;SDS011;22893;50.572;7.234;2023-02-24T05:57:48;11.78;;;3.52;;
24086;SDS011;22893;50.572;7.234;2023-02-24T06:00:17;11.43;;;4.05;;
24086;SDS011;22893;50.572;7.234;2023-02-24T06:02:47;12.07;;;4.67;;
24086;SDS011;22893;50.572;7.234;2023-02-24T06:05:15;9.05;;;4.42;;
24086;SDS011;22893;50.572;7.234;2023-02-24T06:07:54;5.67;;;2.83;;
24086;SDS011;22893;50.572;7.234;2023-02-24T06:10:25;7.55;;;2.92;;
24086;SDS011;22893;50.572;7.234;2023-02-24T06:12:53;4.70;;;2.60;;
24086;SDS011;22893;50.572;7.234;2023-02-24T06:15:20;6.00;;;2.98;;
24086;SDS011;22893;50.572;7.234;2023-02-24T06:17:48;8.75;;;3.10;;
24086;SDS011;22893;50.572;7.234;2023-02-24T06:20:15;6.22;;;2.87;;
24086;SDS011;22893;50.572;7.234;2023-02-24T06:22:43;5.83;;;2.95;;
24086;SDS011;22893;50.572;7.234;2023-02-24T06:25:11;7.80;;;3.40;;
24086;SDS011;22893;50.572;7.234;2023-02-24T06:27:38;5.72;;;2.27;;
24086;SDS011;22893;50.572;7.234;2023-02-24T06:30:08;9.03;;;3.08;;
24086;SDS011;22893;50.572;7.234;2023-02-24T06:32:36;7.92;;;2.83;;
24086;SDS011;22893;50.572;7.234;2023-02-24T06:35:04;7.28;;;2.85;;
24086;SDS011;22893;50.572;7.234;2023-02-24T06:37:31;6.08;;;3.08;;
24086;SDS011;22893;50.572;7.234;2023-02-24T06:40:00;10.25;;;3.05;;
24086;SDS011;22893;50.572;7.234;2023-02-24T06:42:29;10.78;;;3.77;;
24086;SDS011;22893;50.572;7.234;2023-02-24T06:44:57;6.95;;;3.33;;
24086;SDS011;22893;50.572;7.234;2023-02-24T06:47:25;11.03;;;3.10;;
24086;SDS011;22893;50.572;7.234;2023-02-24T06:49:52;8.40;;;3.55;;
24086;SDS011;22893;50.572;7.234;2023-02-24T06:52:20;12.23;;;4.08;;
24086;SDS011;22893;50.572;7.234;2023-02-24T06:54:47;12.53;;;4.03;;
24086;SDS011;22893;50.572;7.234;2023-02-24T06:57:17;16.93;;;4.37;;
24086;SDS011;22893;50.572;7.234;2023-02-24T06:59:45;7.67;;;3.17;;
24086;SDS011;22893;50.572;7.234;2023-02-24T07:02:13;7.60;;;3.50;;
24086;SDS011;22893;50.572;7.234;2023-02-24T07:04:42;12.90;;;3.72;;
24086;SDS011;22893;50.572;7.234;2023-02-24T07:07:10;8.53;;;3.25;;
24086;SDS011;22893;50.572;7.234;2023-02-24T07:09:40;9.95;;;4.05;;
24086;SDS011;22893;50.572;7.234;2023-02-24T07:12:09;15.55;;;5.05;;
24086;SDS011;22893;50.572;7.234;2023-02-24T07:14:37;12.93;;;4.58;;
24086;SDS011;22893;50.572;7.234;2023-02-24T07:17:05;12.18;;;5.17;;
24086;SDS011;22893;50.572;7.234;2023-02-24T07:19:33;7.62;;;4.17;;
24086;SDS011;22893;50.572;7.234;2023-02-24T07:22:01;9.60;;;3.85;;
24086;SDS011;22893;50.572;7.234;2023-02-24T07:24:30;12.23;;;3.87;;
24086;SDS011;22893;50.572;7.234;2023-02-24T07:27:02;13.03;;;4.72;;
24086;SDS011;22893;50.572;7.234;2023-02-24T07:29:32;16.12;;;4.55;;
24086;SDS011;22893;50.572;7.234;2023-02-24T07:32:01;7.80;;;3.60;;
24086;SDS011;22893;50.572;7.234;2023-02-24T07:34:30;11.40;;;5.35;;
24086;SDS011;22893;50.572;7.234;2023-02-24T07:36:59;11.83;;;4.80;;
24086;SDS011;22893;50.572;7.234;2023-02-24T07:39:32;11.57;;;4.55;;
24086;SDS011;22893;50.572;7.234;2023-02-24T07:42:01;7.83;;;3.70;;
24086;SDS011;22893;50.572;7.234;2023-02-24T07:44:30;11.45;;;3.83;;
24086;SDS011;22893;50.572;7.234;2023-02-24T07:46:57;9.80;;;4.58;;
24086;SDS011;22893;50.572;7.234;2023-02-24T07:49:25;12.80;;;4.45;;
24086;SDS011;22893;50.572;7.234;2023-02-24T07:51:54;12.37;;;4.08;;
24086;SDS011;22893;50.572;7.234;2023-02-24T07:54:23;11.03;;;4.47;;
24086;SDS011;22893;50.572;7.234;2023-02-24T07:56:53;9.53;;;3.80;;
24086;SDS011;22893;50.572;7.234;2023-02-24T07:59:31;10.82;;;3.58;;
24086;SDS011;22893;50.572;7.234;2023-02-24T08:01:55;8.45;;;4.40;;
24086;SDS011;22893;50.572;7.234;2023-02-24T08:04:27;12.88;;;4.40;;
24086;SDS011;22893;50.572;7.234;2023-02-24T08:06:57;9.15;;;3.90;;
24086;SDS011;22893;50.572;7.234;2023-02-24T08:09:28;10.40;;;3.50;;
24086;SDS011;22893;50.572;7.234;2023-02-24T08:12:14;7.70;;;3.22;;
24086;SDS011;22893;50.572;7.234;2023-02-24T08:14:46;9.40;;;3.77;;
24086;SDS011;22893;50.572;7.234;2023-02-24T08:17:19;7.00;;;3.17;;
24086;SDS011;22893;50.572;7.234;2023-02-24T08:19:49;11.50;;;5.22;;
24086;SDS011;22893;50.572;7.234;2023-02-24T08:22:19;7.12;;;3.55;;
24086;SDS011;22893;50.572;7.234;2023-02-24T08:24:58;9.98;;;3.35;;
24086;SDS011;22893;50.572;7.234;2023-02-24T08:27:28;5.80;;;3.35;;
24086;SDS011;22893;50.572;7.234;2023-02-24T08:29:56;8.78;;;3.35;;
24086;SDS011;22893;50.572;7.234;2023-02-24T08:32:27;9.03;;;3.30;;
24086;SDS011;22893;50.572;7.234;2023-02-24T08:34:59;8.00;;;3.20;;
24086;SDS011;22893;50.572;7.234;2023-02-24T08:37:31;9.80;;;3.77;;
24086;SDS011;22893;50.572;7.234;2023-02-24T08:40:08;9.30;;;3.40;;
24086;SDS011;22893;50.572;7.234;2023-02-24T08:42:39;12.53;;;3.80;;
24086;SDS011;22893;50.572;7.234;2023-02-24T08:45:06;11.33;;;4.05;;
24086;SDS011;22893;50.572;7.234;2023-02-24T08:47:34;18.65;;;3.83;;
24086;SDS011;22893;50.572;7.234;2023-02-24T08:50:02;16.97;;;5.12;;
24086;SDS011;22893;50.572;7.234;2023-02-24T08:52:31;12.53;;;3.25;;
24086;SDS011;22893;50.572;7.234;2023-02-24T08:54:59;9.45;;;3.15;;
24086;SDS011;22893;50.572;7.234;2023-02-24T08:57:27;19.42;;;4.47;;
24086;SDS011;22893;50.572;7.234;2023-02-24T08:59:57;10.23;;;3.10;;
24086;SDS011;22893;50.572;7.234;2023-02-24T09:02:24;20.25;;;3.72;;
24086;SDS011;22893;50.572;7.234;2023-02-24T09:04:56;17.48;;;5.58;;
24086;SDS011;22893;50.572;7.234;2023-02-24T09:07:37;11.30;;;3.77;;
24086;SDS011;22893;50.572;7.234;2023-02-24T09:10:08;13.30;;;4.72;;
24086;SDS011;22893;50.572;7.234;2023-02-24T09:12:34;17.30;;;4.37;;
24086;SDS011;22893;50.572;7.234;2023-02-24T09:15:03;17.60;;;4.35;;
24086;SDS011;22893;50.572;7.234;2023-02-24T09:17:32;11.73;;;4.10;;
24086;SDS011;22893;50.572;7.234;2023-02-24T09:20:11;21.20;;;3.92;;
24086;SDS011;22893;50.572;7.234;2023-02-24T09:22:53;14.40;;;4.10;;
24086;SDS011;22893;50.572;7.234;2023-02-24T09:25:33;11.93;;;4.08;;
24086;SDS011;22893;50.572;7.234;2023-02-24T09:28:10;13.05;;;2.67;;
24086;SDS011;22893;50.572;7.234;2023-02-24T09:30:44;20.52;;;3.65;;
24086;SDS011;22893;50.572;7.234;2023-02-24T09:35:58;17.75;;;3.45;;
24086;SDS011;22893;50.572;7.234;2023-02-24T09:38:46;9.95;;;2.95;;
24086;SDS011;22893;50.572;7.234;2023-02-24T09:46:56;11.57;;;3.75;;
24086;SDS011;22893;50.572;7.234;2023-02-24T09:49:30;10.32;;;3.00;;
24086;SDS011;22893;50.572;7.234;2023-02-24T09:52:00;14.23;;;3.77;;
24086;SDS011;22893;50.572;7.234;2023-02-24T09:54:30;11.33;;;2.25;;
24086;SDS011;22893;50.572;7.234;2023-02-24T09:57:01;8.38;;;2.90;;
24086;SDS011;22893;50.572;7.234;2023-02-24T09:59:43;12.95;;;3.27;;
24086;SDS011;22893;50.572;7.234;2023-02-24T10:07:42;9.05;;;2.83;;
24086;SDS011;22893;50.572;7.234;2023-02-24T10:10:17;9.08;;;2.80;;
24086;SDS011;22893;50.572;7.234;2023-02-24T10:13:18;8.18;;;2.85;;
24086;SDS011;22893;50.572;7.234;2023-02-24T10:15:58;8.90;;;3.98;;
24086;SDS011;22893;50.572;7.234;2023-02-24T10:24:06;8.65;;;2.00;;
24086;SDS011;22893;50.572;7.234;2023-02-24T10:26:44;17.75;;;3.60;;
24086;SDS011;22893;50.572;7.234;2023-02-24T10:29:21;12.10;;;3.00;;
24086;SDS011;22893;50.572;7.234;2023-02-24T10:31:56;11.30;;;2.40;;
24086;SDS011;22893;50.572;7.234;2023-02-24T10:34:25;7.75;;;3.52;;
24086;SDS011;22893;50.572;7.234;2023-02-24T10:37:00;8.68;;;2.20;;
24086;SDS011;22893;50.572;7.234;2023-02-24T10:39:31;7.08;;;2.72;;
24086;SDS011;22893;50.572;7.234;2023-02-24T10:42:00;16.73;;;2.85;;
24086;SDS011;22893;50.572;7.234;2023-02-24T10:44:43;17.20;;;3.22;;
24086;SDS011;22893;50.572;7.234;2023-02-24T10:47:19;16.10;;;3.30;;
24086;SDS011;22893;50.572;7.234;2023-02-24T10:49:59;28.67;;;4.95;;
24086;SDS011;22893;50.572;7.234;2023-02-24T10:52:35;15.78;;;4.85;;
24086;SDS011;22893;50.572;7.234;2023-02-24T10:55:22;15.85;;;3.35;;
24086;SDS011;22893;50.572;7.234;2023-02-24T10:57:54;17.00;;;2.83;;
24086;SDS011;22893;50.572;7.234;2023-02-24T11:00:43;9.30;;;3.50;;
24086;SDS011;22893;50.572;7.234;2023-02-24T11:03:20;23.67;;;3.87;;
24086;SDS011;22893;50.572;7.234;2023-02-24T11:06:16;17.12;;;3.17;;
24086;SDS011;22893;50.572;7.234;2023-02-24T11:09:03;16.10;;;2.80;;
24086;SDS011;22893;50.572;7.234;2023-02-24T11:11:48;12.35;;;3.22;;
24086;SDS011;22893;50.572;7.234;2023-02-24T11:14:37;6.87;;;2.37;;
24086;SDS011;22893;50.572;7.234;2023-02-24T11:17:22;8.48;;;1.95;;
24086;SDS011;22893;50.572;7.234;2023-02-24T11:19:59;12.07;;;3.00;;
24086;SDS011;22893;50.572;7.234;2023-02-24T11:22:30;17.75;;;2.75;;
24086;SDS011;22893;50.572;7.234;2023-02-24T11:25:04;20.45;;;3.33;;
24086;SDS011;22893;50.572;7.234;2023-02-24T11:27:40;9.15;;;2.52;;
24086;SDS011;22893;50.572;7.234;2023-02-24T11:30:13;8.95;;;2.15;;
24086;SDS011;22893;50.572;7.234;2023-02-24T11:33:02;14.93;;;3.05;;
24086;SDS011;22893;50.572;7.234;2023-02-24T11:35:50;10.93;;;2.85;;
24086;SDS011;22893;50.572;7.234;2023-02-24T11:41:17;9.48;;;2.35;;
24086;SDS011;22893;50.572;7.234;2023-02-24T11:43:48;9.95;;;2.70;;
24086;SDS011;22893;50.572;7.234;2023-02-24T11:46:24;10.50;;;2.40;;
24086;SDS011;22893;50.572;7.234;2023-02-24T11:48:53;10.05;;;3.58;;
24086;SDS011;22893;50.572;7.234;2023-02-24T11:53:52;5.95;;;2.00;;
24086;SDS011;22893;50.572;7.234;2023-02-24T11:56:32;6.80;;;1.87;;
24086;SDS011;22893;50.572;7.234;2023-02-24T12:04:28;13.25;;;2.47;;
24086;SDS011;22893;50.572;7.234;2023-02-24T12:09:48;10.10;;;2.35;;
24086;SDS011;22893;50.572;7.234;2023-02-24T12:12:29;6.15;;;2.22;;
24086;SDS011;22893;50.572;7.234;2023-02-24T12:15:27;9.58;;;2.75;;
24086;SDS011;22893;50.572;7.234;2023-02-24T12:17:41;5.58;;;2.00;;
24086;SDS011;22893;50.572;7.234;2023-02-24T12:23:21;15.88;;;1.82;;
24086;SDS011;22893;50.572;7.234;2023-02-24T12:36:56;12.73;;;2.67;;
24086;SDS011;22893;50.572;7.234;2023-02-24T12:39:35;9.45;;;2.45;;
24086;SDS011;22893;50.572;7.234;2023-02-24T12:42:11;8.58;;;1.82;;
24086;SDS011;22893;50.572;7.234;2023-02-24T12:47:35;11.00;;;2.22;;
24086;SDS011;22893;50.572;7.234;2023-02-24T12:53:03;5.72;;;1.95;;
24086;SDS011;22893;50.572;7.234;2023-02-24T12:58:47;3.33;;;1.95;;
24086;SDS011;22893;50.572;7.234;2023-02-24T13:01:22;12.10;;;1.82;;
24086;SDS011;22893;50.572;7.234;2023-02-24T13:12:05;7.55;;;1.30;;
24086;SDS011;22893;50.572;7.234;2023-02-24T13:14:37;3.98;;;1.15;;
24086;SDS011;22893;50.572;7.234;2023-02-24T13:19:42;5.60;;;2.08;;
24086;SDS011;22893;50.572;7.234;2023-02-24T13:27:34;8.38;;;2.35;;
24086;SDS011;22893;50.572;7.234;2023-02-24T13:30:06;10.23;;;2.17;;
24086;SDS011;22893;50.572;7.234;2023-02-24T13:32:37;7.30;;;1.10;;
24086;SDS011;22893;50.572;7.234;2023-02-24T13:37:44;6.78;;;1.65;;
24086;SDS011;22893;50.572;7.234;2023-02-24T13:40:20;7.28;;;1.52;;
24086;SDS011;22893;50.572;7.234;2023-02-24T13:45:32;6.12;;;0.90;;
24086;SDS011;22893;50.572;7.234;2023-02-24T14:02:20;7.20;;;1.30;;
24086;SDS011;22893;50.572;7.234;2023-02-24T14:04:51;6.37;;;1.30;;
24086;SDS011;22893;50.572;7.234;2023-02-24T14:07:21;4.50;;;1.22;;
24086;SDS011;22893;50.572;7.234;2023-02-24T14:09:52;8.45;;;1.07;;
24086;SDS011;22893;50.572;7.234;2023-02-24T14:12:31;4.47;;;1.02;;
24086;SDS011;22893;50.572;7.234;2023-02-24T14:15:02;6.37;;;1.77;;
24086;SDS011;22893;50.572;7.234;2023-02-24T14:17:31;3.62;;;0.60;;
24086;SDS011;22893;50.572;7.234;2023-02-24T14:20:13;4.58;;;1.00;;
24086;SDS011;22893;50.572;7.234;2023-02-24T14:22:44;4.95;;;1.17;;
24086;SDS011;22893;50.572;7.234;2023-02-24T14:25:13;5.87;;;0.90;;
24086;SDS011;22893;50.572;7.234;2023-02-24T14:27:41;6.28;;;1.55;;
24086;SDS011;22893;50.572;7.234;2023-02-24T14:32:51;4.50;;;0.98;;
24086;SDS011;22893;50.572;7.234;2023-02-24T14:35:20;5.25;;;0.90;;
24086;SDS011;22893;50.572;7.234;2023-02-24T14:37:58;8.18;;;1.10;;
24086;SDS011;22893;50.572;7.234;2023-02-24T14:40:26;4.08;;;0.90;;
24086;SDS011;22893;50.572;7.234;2023-02-24T14:42:55;4.60;;;1.00;;
24086;SDS011;22893;50.572;7.234;2023-02-24T14:45:23;3.22;;;1.72;;
24086;SDS011;22893;50.572;7.234;2023-02-24T14:47:53;7.28;;;1.57;;
24086;SDS011;22893;50.572;7.234;2023-02-24T14:50:26;4.40;;;1.65;;
24086;SDS011;22893;50.572;7.234;2023-02-24T14:52:57;2.75;;;1.20;;
24086;SDS011;22893;50.572;7.234;2023-02-24T14:55:36;2.98;;;0.78;;
24086;SDS011;22893;50.572;7.234;2023-02-24T15:00:47;3.12;;;1.22;;
24086;SDS011;22893;50.572;7.234;2023-02-24T15:03:26;4.45;;;0.70;;
24086;SDS011;22893;50.572;7.234;2023-02-24T15:06:17;5.12;;;1.20;;
24086;SDS011;22893;50.572;7.234;2023-02-24T15:08:48;4.78;;;1.40;;
24086;SDS011;22893;50.572;7.234;2023-02-24T15:11:20;7.37;;;1.45;;
24086;SDS011;22893;50.572;7.234;2023-02-24T15:13:53;2.75;;;0.82;;
24086;SDS011;22893;50.572;7.234;2023-02-24T15:16:21;4.83;;;1.40;;
24086;SDS011;22893;50.572;7.234;2023-02-24T15:18:54;2.50;;;1.32;;
24086;SDS011;22893;50.572;7.234;2023-02-24T15:21:27;2.30;;;1.47;;
24086;SDS011;22893;50.572;7.234;2023-02-24T15:24:01;9.53;;;0.98;;
24086;SDS011;22893;50.572;7.234;2023-02-24T15:26:32;2.83;;;1.22;;
24086;SDS011;22893;50.572;7.234;2023-02-24T15:29:02;4.33;;;1.10;;
24086;SDS011;22893;50.572;7.234;2023-02-24T15:31:45;6.78;;;1.17;;
24086;SDS011;22893;50.572;7.234;2023-02-24T15:34:19;2.95;;;0.90;;
24086;SDS011;22893;50.572;7.234;2023-02-24T15:36:45;5.97;;;1.12;;
24086;SDS011;22893;50.572;7.234;2023-02-24T15:39:17;3.50;;;1.07;;
24086;SDS011;22893;50.572;7.234;2023-02-24T15:41:49;2.95;;;0.93;;
24086;SDS011;22893;50.572;7.234;2023-02-24T15:44:23;2.02;;;0.80;;
24086;SDS011;22893;50.572;7.234;2023-02-24T15:47:00;0.70;;;0.55;;
24086;SDS011;22893;50.572;7.234;2023-02-24T15:49:39;3.80;;;1.20;;
24086;SDS011;22893;50.572;7.234;2023-02-24T15:52:07;3.98;;;0.62;;
24086;SDS011;22893;50.572;7.234;2023-02-24T15:54:36;3.80;;;0.80;;
24086;SDS011;22893;50.572;7.234;2023-02-24T15:57:13;3.40;;;1.07;;
24086;SDS011;22893;50.572;7.234;2023-02-24T15:59:37;3.02;;;1.20;;
24086;SDS011;22893;50.572;7.234;2023-02-24T16:02:12;8.55;;;1.65;;
24086;SDS011;22893;50.572;7.234;2023-02-24T16:04:43;4.15;;;0.72;;
24086;SDS011;22893;50.572;7.234;2023-02-24T16:07:16;6.45;;;1.50;;
24086;SDS011;22893;50.572;7.234;2023-02-24T16:09:44;1.60;;;0.80;;
24086;SDS011;22893;50.572;7.234;2023-02-24T16:12:19;3.12;;;0.62;;
24086;SDS011;22893;50.572;7.234;2023-02-24T16:14:45;2.12;;;0.72;;
24086;SDS011;22893;50.572;7.234;2023-02-24T16:17:20;2.45;;;0.57;;
24086;SDS011;22893;50.572;7.234;2023-02-24T16:19:48;4.50;;;1.45;;
24086;SDS011;22893;50.572;7.234;2023-02-24T16:22:16;4.42;;;0.90;;
24086;SDS011;22893;50.572;7.234;2023-02-24T16:24:44;1.80;;;0.78;;
24086;SDS011;22893;50.572;7.234;2023-02-24T16:27:19;7.03;;;1.67;;
24086;SDS011;22893;50.572;7.234;2023-02-24T16:29:50;4.85;;;0.65;;
24086;SDS011;22893;50.572;7.234;2023-02-24T16:32:18;4.50;;;0.98;;
24086;SDS011;22893;50.572;7.234;2023-02-24T16:34:50;2.10;;;0.80;;
24086;SDS011;22893;50.572;7.234;2023-02-24T16:37:19;2.22;;;0.50;;
24086;SDS011;22893;50.572;7.234;2023-02-24T16:39:54;1.82;;;1.02;;
24086;SDS011;22893;50.572;7.234;2023-02-24T16:42:23;2.52;;;0.62;;
24086;SDS011;22893;50.572;7.234;2023-02-24T16:44:53;2.20;;;0.68;;
24086;SDS011;22893;50.572;7.234;2023-02-24T16:47:21;1.27;;;0.75;;
24086;SDS011;22893;50.572;7.234;2023-02-24T16:49:49;1.15;;;0.65;;
24086;SDS011;22893;50.572;7.234;2023-02-24T16:52:22;1.70;;;1.17;;
24086;SDS011;22893;50.572;7.234;2023-02-24T16:54:50;2.83;;;0.68;;
24086;SDS011;22893;50.572;7.234;2023-02-24T16:57:17;2.33;;;0.50;;
24086;SDS011;22893;50.572;7.234;2023-02-24T16:59:47;3.47;;;0.60;;
24086;SDS011;22893;50.572;7.234;2023-02-24T17:02:16;2.00;;;0.40;;
24086;SDS011;22893;50.572;7.234;2023-02-24T17:04:45;8.60;;;0.70;;
24086;SDS011;22893;50.572;7.234;2023-02-24T17:07:12;5.10;;;1.50;;
24086;SDS011;22893;50.572;7.234;2023-02-24T17:09:41;2.95;;;1.00;;
24086;SDS011;22893;50.572;7.234;2023-02-24T17:12:10;9.15;;;2.55;;
24086;SDS011;22893;50.572;7.234;2023-02-24T17:14:38;8.78;;;2.65;;
24086;SDS011;22893;50.572;7.234;2023-02-24T17:17:06;16.10;;;5.22;;
24086;SDS011;22893;50.572;7.234;2023-02-24T17:19:34;24.12;;;7.40;;
24086;SDS011;22893;50.572;7.234;2023-02-24T17:22:01;25.10;;;15.03;;
24086;SDS011;22893;50.572;7.234;2023-02-24T17:24:29;36.00;;;15.48;;
24086;SDS011;22893;50.572;7.234;2023-02-24T17:26:57;27.90;;;15.72;;
24086;SDS011;22893;50.572;7.234;2023-02-24T17:29:26;33.55;;;15.98;;
24086;SDS011;22893;50.572;7.234;2023-02-24T17:31:54;33.58;;;17.20;;
24086;SDS011;22893;50.572;7.234;2023-02-24T17:34:21;28.95;;;15.08;;